createdAt,value
2024-04-24T00:02:01.214Z,69.00
2024-04-24T00:04:28.983Z,68.89
2024-04-24T00:06:56.729Z,68.79
2024-04-24T00:09:24.402Z,69.14
2024-04-24T00:11:52.410Z,69.10
2024-04-24T00:14:21.663Z,69.25
2024-04-24T00:16:49.372Z,69.23
2024-04-24T00:19:17.059Z,69.17
2024-04-24T00:21:44.742Z,69.07
2024-04-24T00:24:16.783Z,69.18
2024-04-24T00:26:44.847Z,69.44
2024-04-24T00:29:12.516Z,69.24
2024-04-24T00:31:40.186Z,69.13
2024-04-24T00:34:08.734Z,69.05
2024-04-24T00:36:36.404Z,69.08
2024-04-24T00:39:04.113Z,69.32
2024-04-24T00:41:31.766Z,69.36
2024-04-24T00:43:59.516Z,69.34
2024-04-24T00:46:29.852Z,69.42
2024-04-24T00:48:59.665Z,69.21
2024-04-24T00:51:28.606Z,69.23
2024-04-24T00:53:56.343Z,69.41
2024-04-24T00:56:24.545Z,69.31
2024-04-24T00:58:52.863Z,69.52
2024-04-24T01:01:21.306Z,69.46
2024-04-24T01:03:49.536Z,69.30
2024-04-24T01:06:17.249Z,69.38
2024-04-24T01:08:44.964Z,69.36
2024-04-24T01:11:12.872Z,69.61
2024-04-24T01:13:40.658Z,69.45
2024-04-24T01:16:17.780Z,69.72
2024-04-24T01:19:08.205Z,69.51
2024-04-24T01:22:01.856Z,69.70
2024-04-24T01:24:37.383Z,69.67
2024-04-24T01:27:05.275Z,69.65
2024-04-24T01:29:33.268Z,69.75
2024-04-24T01:32:01.099Z,69.80
2024-04-24T01:34:28.799Z,69.89
2024-04-24T01:36:56.509Z,70.08
2024-04-24T01:39:24.263Z,70.07
2024-04-24T01:41:52.033Z,69.92
2024-04-24T01:44:19.746Z,70.00
2024-04-24T01:46:47.647Z,70.21
2024-04-24T01:49:15.411Z,69.94
2024-04-24T01:51:43.174Z,70.39
2024-04-24T01:54:10.824Z,70.09
2024-04-24T01:56:38.603Z,70.13
2024-04-24T01:59:06.326Z,69.86
2024-04-24T02:01:34.024Z,70.12
2024-04-24T02:04:01.828Z,69.86
2024-04-24T02:06:29.484Z,70.16
2024-04-24T02:08:57.320Z,70.60
2024-04-24T02:11:25.057Z,70.51
2024-04-24T02:13:53.033Z,70.60
2024-04-24T02:16:20.698Z,70.55
2024-04-24T02:18:48.527Z,70.40
2024-04-24T02:21:16.301Z,70.50
2024-04-24T02:23:43.973Z,70.82
2024-04-24T02:26:12.114Z,70.59
2024-04-24T02:28:39.867Z,70.39
2024-04-24T02:31:07.632Z,70.90
2024-04-24T02:33:35.856Z,70.57
2024-04-24T02:36:03.969Z,70.61
2024-04-24T02:38:31.678Z,70.51
2024-04-24T02:40:59.561Z,70.71
2024-04-24T02:43:27.400Z,70.59
2024-04-24T02:45:55.884Z,70.79
2024-04-24T02:48:23.764Z,70.62
2024-04-24T02:50:51.495Z,70.76
2024-04-24T02:53:19.235Z,70.97
2024-04-24T02:55:47.155Z,71.02
2024-04-24T02:58:14.791Z,70.73
2024-04-24T03:00:42.483Z,71.28
2024-04-24T03:03:10.381Z,71.30
2024-04-24T03:05:38.355Z,71.40
2024-04-24T03:08:06.260Z,71.39
2024-04-24T03:10:33.903Z,71.62
2024-04-24T03:13:01.582Z,71.53
2024-04-24T03:15:29.202Z,71.34
2024-04-24T03:17:57.028Z,71.67
2024-04-24T03:20:24.939Z,71.65
2024-04-24T03:22:52.828Z,71.59
2024-04-24T03:25:20.516Z,71.86
2024-04-24T03:27:48.272Z,71.85
2024-04-24T03:30:15.978Z,71.96
2024-04-24T03:32:43.831Z,71.95
2024-04-24T03:35:11.694Z,71.65
2024-04-24T03:37:39.892Z,72.01
2024-04-24T03:40:08.193Z,72.37
2024-04-24T03:42:37.864Z,71.95
2024-04-24T03:45:06.030Z,72.09
2024-04-24T03:47:33.939Z,72.29
2024-04-24T03:50:01.840Z,71.81
2024-04-24T03:52:29.619Z,71.87
2024-04-24T03:54:57.302Z,72.20
2024-04-24T03:57:25.065Z,72.11
2024-04-24T03:59:52.779Z,71.85
2024-04-24T04:02:20.554Z,72.04
2024-04-24T04:04:48.335Z,72.25
2024-04-24T04:07:16.195Z,72.06
2024-04-24T04:09:44.788Z,72.11
2024-04-24T04:12:13.555Z,72.34
2024-04-24T04:14:41.642Z,72.60
2024-04-24T04:17:10.216Z,72.64
2024-04-24T04:19:38.397Z,72.62
2024-04-24T04:22:06.161Z,72.78
2024-04-24T04:24:33.945Z,72.86
2024-04-24T04:27:02.112Z,72.64
2024-04-24T04:29:29.976Z,72.81
2024-04-24T04:31:57.791Z,72.90
2024-04-24T04:34:26.306Z,72.54
2024-04-24T04:36:54.200Z,72.75
2024-04-24T04:39:21.887Z,72.82
2024-04-24T04:41:49.707Z,72.62
2024-04-24T04:44:17.606Z,72.74
2024-04-24T04:46:45.515Z,73.40
2024-04-24T04:49:13.586Z,73.22
2024-04-24T04:51:41.317Z,73.22
2024-04-24T04:54:09.015Z,73.87
2024-04-24T04:56:36.800Z,73.85
2024-04-24T04:59:04.508Z,73.35
2024-04-24T05:01:32.291Z,74.08
2024-04-24T05:04:00.032Z,74.09
2024-04-24T05:06:28.208Z,74.49
2024-04-24T05:08:55.913Z,74.47
2024-04-24T05:11:23.740Z,75.01
2024-04-24T05:13:51.611Z,74.83
2024-04-24T05:16:19.382Z,74.96
2024-04-24T05:18:47.501Z,75.29
2024-04-24T05:21:15.278Z,75.48
2024-04-24T05:23:42.983Z,75.59
2024-04-24T05:26:29.087Z,75.46
2024-04-24T05:29:07.778Z,75.33
2024-04-24T05:31:36.998Z,75.15
2024-04-24T05:34:05.339Z,75.54
2024-04-24T05:36:33.393Z,75.67
2024-04-24T05:39:01.177Z,76.19
2024-04-24T05:41:28.936Z,75.66
2024-04-24T05:43:56.691Z,75.70
2024-04-24T05:46:24.403Z,75.64
2024-04-24T05:48:52.257Z,75.94
2024-04-24T05:51:20.142Z,76.17
2024-04-24T05:53:47.830Z,75.74
2024-04-24T05:56:15.674Z,76.06
2024-04-24T05:58:44.811Z,75.89
2024-04-24T06:01:12.537Z,75.88
2024-04-24T06:03:40.278Z,75.82
2024-04-24T06:06:07.974Z,76.29
2024-04-24T06:08:35.699Z,75.68
2024-04-24T06:11:03.630Z,76.19
2024-04-24T06:13:31.444Z,76.15
2024-04-24T06:15:59.186Z,76.09
2024-04-24T06:18:26.954Z,76.28
2024-04-24T06:20:54.668Z,75.90
2024-04-24T06:23:22.469Z,76.19
2024-04-24T06:25:50.225Z,76.08
2024-04-24T06:28:17.986Z,76.38
2024-04-24T06:30:45.686Z,76.82
2024-04-24T06:33:13.691Z,77.18
2024-04-24T06:35:41.691Z,76.98
2024-04-24T06:38:09.655Z,76.81
2024-04-24T06:40:37.539Z,77.28
2024-04-24T06:43:05.312Z,77.80
2024-04-24T06:45:32.964Z,78.16
2024-04-24T06:48:01.167Z,78.50
2024-04-24T06:50:29.176Z,78.52
2024-04-24T06:52:57.247Z,78.67
2024-04-24T06:55:27.175Z,78.75
2024-04-24T06:57:57.555Z,78.77
2024-04-24T07:00:29.149Z,78.83
2024-04-24T07:02:58.039Z,79.06
2024-04-24T07:05:25.820Z,78.83
2024-04-24T07:07:53.654Z,78.82
2024-04-24T07:10:21.418Z,78.83
2024-04-24T07:12:49.495Z,79.38
2024-04-24T07:15:17.327Z,79.65
2024-04-24T07:17:45.421Z,79.54
2024-04-24T07:20:13.338Z,79.19
2024-04-24T07:22:41.092Z,79.06
2024-04-24T07:25:08.777Z,79.39
2024-04-24T07:27:36.564Z,79.31
2024-04-24T07:30:07.012Z,79.47
2024-04-24T07:32:35.002Z,79.79
2024-04-24T07:35:02.995Z,79.72
2024-04-24T07:37:30.879Z,79.46
2024-04-24T07:40:00.902Z,79.75
2024-04-24T07:42:28.651Z,79.52
2024-04-24T07:44:56.370Z,79.75
2024-04-24T07:47:24.348Z,79.54
2024-04-24T07:49:52.364Z,79.21
2024-04-24T07:52:20.034Z,79.31
2024-04-24T07:54:47.771Z,79.46
2024-04-24T07:57:15.448Z,79.85
2024-04-24T07:59:43.425Z,79.51
2024-04-24T08:02:11.124Z,79.44
2024-04-24T08:04:38.843Z,79.15
2024-04-24T08:07:06.621Z,79.04
2024-04-24T08:09:34.243Z,79.04
2024-04-24T08:12:02.146Z,79.34
2024-04-24T08:14:30.441Z,79.37
2024-04-24T08:16:58.368Z,79.57
2024-04-24T08:19:26.012Z,78.94
2024-04-24T08:21:53.782Z,78.65
2024-04-24T08:24:21.420Z,78.51
2024-04-24T08:26:49.159Z,78.77
2024-04-24T08:29:16.926Z,78.79
2024-04-24T08:31:44.742Z,78.64
2024-04-24T08:34:12.513Z,78.45
2024-04-24T08:36:42.989Z,78.11
2024-04-24T08:39:15.843Z,78.31
2024-04-24T08:41:44.258Z,78.29
2024-04-24T08:44:13.882Z,78.41
2024-04-24T08:46:43.644Z,78.39
2024-04-24T08:49:11.835Z,78.20
2024-04-24T08:51:43.128Z,78.32
2024-04-24T08:54:20.091Z,78.25
2024-04-24T08:57:00.272Z,78.29
2024-04-24T08:59:32.858Z,78.14
2024-04-24T09:02:06.159Z,78.31
2024-04-24T09:04:35.963Z,78.02
2024-04-24T09:07:04.736Z,78.08
2024-04-24T09:09:33.371Z,77.81
2024-04-24T09:12:02.904Z,77.57
2024-04-24T09:14:32.624Z,77.68
2024-04-24T09:17:01.883Z,77.99
2024-04-24T09:19:30.438Z,78.23
2024-04-24T09:21:58.146Z,78.23
2024-04-24T09:24:25.919Z,77.97
2024-04-24T09:26:55.578Z,77.83
2024-04-24T09:29:24.037Z,77.89
2024-04-24T09:31:51.880Z,77.39
2024-04-24T09:34:19.798Z,77.57
2024-04-24T09:36:48.699Z,77.59
2024-04-24T09:39:17.962Z,77.82
2024-04-24T09:41:49.475Z,77.82
2024-04-24T09:44:17.445Z,77.56
2024-04-24T09:46:55.663Z,77.60
2024-04-24T09:49:24.185Z,77.62
2024-04-24T09:51:52.041Z,77.47
2024-04-24T09:54:22.494Z,77.35
2024-04-24T09:56:55.392Z,77.06
2024-04-24T09:59:30.726Z,76.87
2024-04-24T10:02:13.166Z,76.89
2024-04-24T10:04:48.509Z,76.89
2024-04-24T10:09:49.264Z,76.90
2024-04-24T10:12:30.606Z,77.12
2024-04-24T10:15:12.829Z,77.01
2024-04-24T10:17:42.941Z,77.01
2024-04-24T10:20:19.522Z,76.78
2024-04-24T10:22:54.946Z,76.73
2024-04-24T10:25:24.280Z,76.62
2024-04-24T10:27:53.178Z,76.57
2024-04-24T10:30:21.613Z,76.62
2024-04-24T10:32:49.541Z,76.58
2024-04-24T10:35:20.540Z,76.77
2024-04-24T10:37:53.795Z,76.81
2024-04-24T10:40:28.697Z,76.71
2024-04-24T10:43:00.365Z,76.88
2024-04-24T10:45:28.888Z,76.91
2024-04-24T10:47:57.479Z,76.86
2024-04-24T10:50:29.328Z,76.82
2024-04-24T10:52:57.578Z,77.29
2024-04-24T10:55:25.474Z,76.79
2024-04-24T10:57:54.690Z,76.69
2024-04-24T11:00:23.915Z,76.74
2024-04-24T11:03:00.439Z,77.08
2024-04-24T11:05:36.868Z,76.80
2024-04-24T11:08:06.111Z,76.84
2024-04-24T11:10:35.146Z,77.02
2024-04-24T11:13:13.982Z,76.99
2024-04-24T11:15:45.353Z,76.81
2024-04-24T11:18:18.794Z,76.77
2024-04-24T11:20:46.689Z,77.04
2024-04-24T11:23:14.661Z,76.94
2024-04-24T11:25:57.992Z,77.04
2024-04-24T11:28:28.031Z,77.01
2024-04-24T11:30:56.276Z,76.87
2024-04-24T11:33:24.651Z,76.75
2024-04-24T11:35:53.548Z,76.62
2024-04-24T11:38:21.385Z,76.82
2024-04-24T11:40:49.187Z,76.55
2024-04-24T11:43:17.839Z,76.88
2024-04-24T11:45:46.207Z,76.97
2024-04-24T11:48:14.078Z,76.88
2024-04-24T11:50:42.024Z,76.36
2024-04-24T11:53:10.025Z,76.61
2024-04-24T11:55:37.745Z,76.67
2024-04-24T11:58:14.977Z,76.72
2024-04-24T12:00:42.906Z,76.40
2024-04-24T12:03:10.954Z,76.73
2024-04-24T12:05:40.115Z,76.65
2024-04-24T12:08:09.795Z,76.59
2024-04-24T12:10:37.662Z,76.82
2024-04-24T12:13:05.596Z,76.73
2024-04-24T12:15:33.339Z,76.98
2024-04-24T12:18:01.166Z,76.53
2024-04-24T12:20:28.978Z,76.72
2024-04-24T12:22:56.784Z,77.03
2024-04-24T12:25:24.456Z,77.02
2024-04-24T12:27:52.317Z,76.55
2024-04-24T12:30:20.099Z,76.82
2024-04-24T12:32:48.375Z,76.68
2024-04-24T12:35:16.200Z,76.54
2024-04-24T12:37:43.931Z,76.51
2024-04-24T12:40:13.847Z,76.47
2024-04-24T12:42:41.708Z,76.35
2024-04-24T12:45:09.767Z,76.24
2024-04-24T12:47:37.879Z,76.13
2024-04-24T12:50:06.022Z,75.93
2024-04-24T12:52:34.053Z,76.04
2024-04-24T12:55:01.798Z,75.69
2024-04-24T12:57:29.492Z,75.79
2024-04-24T12:59:57.207Z,75.95
2024-04-24T13:02:25.098Z,76.02
2024-04-24T13:04:52.890Z,76.19
2024-04-24T13:07:20.582Z,75.90
2024-04-24T13:09:49.463Z,75.78
2024-04-24T13:12:20.390Z,75.42
2024-04-24T13:14:49.769Z,75.26
2024-04-24T13:17:17.628Z,75.46
2024-04-24T13:19:45.520Z,75.45
2024-04-24T13:22:13.217Z,75.35
2024-04-24T13:24:40.927Z,75.22
2024-04-24T13:27:08.587Z,75.23
2024-04-24T13:29:36.281Z,75.15
2024-04-24T13:32:04.071Z,75.22
2024-04-24T13:34:31.972Z,75.21
2024-04-24T13:36:59.744Z,75.06
2024-04-24T13:39:27.389Z,75.11
2024-04-24T13:41:55.162Z,75.12
2024-04-24T13:44:22.900Z,75.25
2024-04-24T13:46:50.622Z,75.00
2024-04-24T13:49:18.361Z,75.28
2024-04-24T13:51:46.151Z,75.27
2024-04-24T13:54:16.350Z,75.01
2024-04-24T13:56:44.905Z,75.36
2024-04-24T13:59:14.033Z,75.27
2024-04-24T14:01:41.950Z,75.53
2024-04-24T14:04:09.805Z,75.34
2024-04-24T14:06:37.618Z,75.24
2024-04-24T14:09:05.422Z,75.13
2024-04-24T14:11:33.175Z,75.12
2024-04-24T14:14:01.121Z,75.10
2024-04-24T14:16:28.910Z,74.93
2024-04-24T14:18:56.684Z,75.10
2024-04-24T14:21:24.358Z,75.18
2024-04-24T14:23:52.061Z,75.04
2024-04-24T14:26:20.232Z,75.28
2024-04-24T14:28:48.019Z,75.13
2024-04-24T14:31:15.856Z,75.11
2024-04-24T14:33:43.639Z,75.26
2024-04-24T14:36:11.434Z,75.37
2024-04-24T14:38:39.184Z,75.44
2024-04-24T14:41:08.899Z,75.26
2024-04-24T14:43:37.566Z,75.27
2024-04-24T14:46:06.141Z,75.43
2024-04-24T14:48:33.937Z,75.60
2024-04-24T14:51:02.214Z,75.65
2024-04-24T14:53:29.908Z,75.68
2024-04-24T14:55:58.888Z,75.36
2024-04-24T14:58:26.823Z,75.56
2024-04-24T15:00:55.596Z,75.45
2024-04-24T15:03:24.958Z,75.76
2024-04-24T15:05:52.807Z,75.47
2024-04-24T15:08:20.669Z,75.62
2024-04-24T15:10:49.899Z,75.34
2024-04-24T15:13:17.645Z,75.43
2024-04-24T15:15:47.291Z,75.70
2024-04-24T15:18:15.116Z,75.60
2024-04-24T15:20:42.954Z,75.63
2024-04-24T15:23:12.318Z,75.56
2024-04-24T15:25:43.390Z,75.69
2024-04-24T15:28:11.109Z,75.66
2024-04-24T15:30:38.805Z,75.89
2024-04-24T15:33:06.817Z,76.10
2024-04-24T15:35:34.875Z,76.29
2024-04-24T15:38:02.693Z,76.03
2024-04-24T15:40:30.418Z,76.10
2024-04-24T15:42:58.153Z,76.31
2024-04-24T15:45:27.015Z,76.30
2024-04-24T15:47:54.933Z,76.49
2024-04-24T15:50:22.756Z,76.37
2024-04-24T15:52:50.475Z,76.58
2024-04-24T15:55:18.133Z,76.64
2024-04-24T15:57:45.804Z,76.70
2024-04-24T16:00:13.847Z,76.74
2024-04-24T16:02:44.102Z,76.79
2024-04-24T16:05:14.458Z,77.05
2024-04-24T16:07:42.472Z,77.05
2024-04-24T16:10:10.765Z,77.03
2024-04-24T16:12:38.511Z,76.95
2024-04-24T16:15:06.759Z,76.76
2024-04-24T16:17:34.569Z,76.94
2024-04-24T16:20:02.721Z,76.98
2024-04-24T16:22:30.670Z,77.08
2024-04-24T16:24:58.449Z,76.96
2024-04-24T16:27:26.154Z,77.10
2024-04-24T16:29:53.835Z,77.29
2024-04-24T16:32:22.300Z,77.16
2024-04-24T16:34:50.110Z,77.34
2024-04-24T16:37:17.895Z,77.51
2024-04-24T16:39:47.004Z,77.58
2024-04-24T16:42:14.787Z,77.61
2024-04-24T16:44:42.549Z,77.58
2024-04-24T16:47:11.764Z,77.59
2024-04-24T16:49:40.380Z,77.51
2024-04-24T16:52:11.150Z,77.70
2024-04-24T16:54:39.568Z,77.75
2024-04-24T16:57:08.220Z,77.77
2024-04-24T16:59:36.093Z,77.72
2024-04-24T17:02:03.849Z,77.72
2024-04-24T17:04:33.176Z,77.97
2024-04-24T17:07:00.990Z,77.85
2024-04-24T17:09:29.636Z,78.10
2024-04-24T17:11:58.044Z,78.23
2024-04-24T17:14:27.599Z,78.29
2024-04-24T17:16:55.405Z,78.40
2024-04-24T17:19:23.304Z,78.63
2024-04-24T17:21:51.312Z,78.62
2024-04-24T17:24:21.863Z,78.58
2024-04-24T17:26:52.843Z,78.64
2024-04-24T17:29:20.720Z,78.98
2024-04-24T17:31:48.424Z,79.18
2024-04-24T17:34:21.471Z,79.50
2024-04-24T17:36:49.113Z,79.50
2024-04-24T17:39:17.509Z,79.24
2024-04-24T17:41:45.411Z,79.58
2024-04-24T17:44:13.351Z,79.84
2024-04-24T17:46:41.251Z,80.06
2024-04-24T17:49:08.983Z,80.50
2024-04-24T17:51:37.467Z,80.62
2024-04-24T17:54:05.323Z,80.59
2024-04-24T17:56:34.322Z,80.64
2024-04-24T17:59:02.165Z,80.75
2024-04-24T18:01:29.913Z,80.98
2024-04-24T18:03:57.609Z,81.18
2024-04-24T18:06:25.446Z,81.13
2024-04-24T18:08:53.149Z,81.13
2024-04-24T18:11:21.290Z,81.12
2024-04-24T18:13:49.195Z,81.43
2024-04-24T18:16:16.933Z,81.64
2024-04-24T18:18:45.163Z,81.57
2024-04-24T18:21:12.929Z,81.52
2024-04-24T18:23:40.815Z,81.51
2024-04-24T18:26:08.586Z,81.59
2024-04-24T18:28:36.342Z,81.54
2024-04-24T18:31:04.225Z,81.58
2024-04-24T18:33:32.013Z,81.79
2024-04-24T18:36:00.241Z,81.65
2024-04-24T18:38:28.389Z,81.68
2024-04-24T18:40:56.201Z,81.67
2024-04-24T18:43:23.902Z,81.75
2024-04-24T18:45:51.627Z,81.91
2024-04-24T18:48:20.597Z,82.08
2024-04-24T18:50:48.411Z,82.20
2024-04-24T18:53:16.197Z,82.14
2024-04-24T18:55:44.850Z,82.20
2024-04-24T18:58:12.656Z,82.30
2024-04-24T19:00:40.913Z,82.34
2024-04-24T19:03:08.786Z,82.58
2024-04-24T19:05:36.683Z,82.62
2024-04-24T19:08:05.124Z,82.58
2024-04-24T19:10:32.843Z,82.66
2024-04-24T19:13:00.563Z,83.01
2024-04-24T19:15:29.391Z,82.84
2024-04-24T19:17:57.171Z,83.00
2024-04-24T19:20:25.259Z,83.03
2024-04-24T19:22:53.181Z,82.95
2024-04-24T19:25:21.012Z,82.84
2024-04-24T19:27:48.774Z,83.06
2024-04-24T19:30:16.588Z,83.56
2024-04-24T19:32:44.471Z,83.28
2024-04-24T19:35:12.390Z,83.06
2024-04-24T19:37:40.270Z,83.02
2024-04-24T19:40:08.635Z,83.19
2024-04-24T19:42:36.436Z,83.45
2024-04-24T19:45:04.471Z,83.69
2024-04-24T19:47:32.196Z,83.18
2024-04-24T19:50:01.163Z,83.22
2024-04-24T19:52:29.031Z,83.27
2024-04-24T19:54:56.715Z,83.16
2024-04-24T19:57:24.373Z,83.26
2024-04-24T19:59:52.115Z,83.25
2024-04-24T20:02:21.240Z,83.32
2024-04-24T20:04:50.109Z,83.20
2024-04-24T20:07:17.816Z,83.45
2024-04-24T20:09:46.237Z,83.44
2024-04-24T20:12:14.011Z,83.22
2024-04-24T20:14:42.000Z,82.78
2024-04-24T20:17:10.112Z,82.46
2024-04-24T20:19:38.171Z,82.82
2024-04-24T20:22:06.105Z,83.04
2024-04-24T20:24:33.827Z,82.93
2024-04-24T20:27:01.522Z,83.00
2024-04-24T20:29:29.400Z,82.91
2024-04-24T20:31:57.153Z,83.01
2024-04-24T20:34:28.322Z,83.29
2024-04-24T20:36:56.398Z,83.22
2024-04-24T20:39:24.228Z,83.49
2024-04-24T20:41:51.863Z,83.06
2024-04-24T20:44:22.104Z,83.37
2024-04-24T20:46:49.873Z,83.18
2024-04-24T20:49:17.612Z,83.29
2024-04-24T20:51:45.460Z,83.37
2024-04-24T20:54:13.270Z,83.23
2024-04-24T20:56:40.959Z,83.16
2024-04-24T20:59:09.208Z,83.13
2024-04-24T21:01:38.518Z,83.15
2024-04-24T21:04:06.979Z,83.55
2024-04-24T21:06:36.187Z,82.84
2024-04-24T21:09:03.926Z,82.91
2024-04-24T21:11:31.742Z,82.84
2024-04-24T21:13:59.546Z,82.78
2024-04-24T21:16:27.283Z,82.99
2024-04-24T21:18:55.461Z,82.85
2024-04-24T21:21:23.561Z,83.16
2024-04-24T21:23:52.086Z,83.35
2024-04-24T21:26:19.907Z,82.75
2024-04-24T21:28:48.274Z,82.68
2024-04-24T21:31:16.002Z,82.86
2024-04-24T21:33:43.740Z,82.86
2024-04-24T21:36:11.490Z,82.79
2024-04-24T21:38:39.386Z,82.79
2024-04-24T21:41:20.135Z,83.02
2024-04-24T21:43:49.274Z,82.99
2024-04-24T21:46:19.569Z,83.03
2024-04-24T21:48:47.427Z,82.30
2024-04-24T21:51:15.192Z,82.89
2024-04-24T21:53:43.120Z,82.47
2024-04-24T21:56:10.917Z,81.99
2024-04-24T21:58:39.947Z,82.50
2024-04-24T22:01:09.002Z,82.64
2024-04-24T22:03:36.988Z,82.80
2024-04-24T22:06:05.715Z,82.45
2024-04-24T22:08:33.519Z,82.56
2024-04-24T22:11:01.502Z,82.78
2024-04-24T22:13:29.413Z,82.74
2024-04-24T22:15:57.110Z,82.43
2024-04-24T22:18:24.995Z,82.59
2024-04-24T22:20:52.833Z,82.85
2024-04-24T22:23:20.548Z,82.82
2024-04-24T22:25:48.310Z,82.28
2024-04-24T22:28:16.068Z,82.23
2024-04-24T22:30:43.940Z,82.25
2024-04-24T22:33:11.680Z,82.35
2024-04-24T22:35:39.801Z,82.23
2024-04-24T22:38:09.402Z,82.38
2024-04-24T22:40:37.257Z,82.59
2024-04-24T22:43:05.085Z,82.58
2024-04-24T22:45:32.868Z,82.62
2024-04-24T22:48:00.743Z,82.68
2024-04-24T22:50:28.715Z,82.81
2024-04-24T22:52:56.507Z,82.78
2024-04-24T22:55:24.220Z,82.66
2024-04-24T22:57:51.894Z,82.76
2024-04-24T23:00:19.712Z,82.50
2024-04-24T23:02:47.819Z,82.66
2024-04-24T23:05:15.870Z,82.80
2024-04-24T23:07:43.731Z,82.50
2024-04-24T23:10:11.595Z,83.11
2024-04-24T23:12:39.351Z,82.79
2024-04-24T23:15:07.291Z,82.85
2024-04-24T23:17:35.112Z,82.43
2024-04-24T23:20:03.228Z,82.79
2024-04-24T23:22:31.029Z,82.53
2024-04-24T23:24:58.877Z,82.29
2024-04-24T23:27:26.519Z,82.64
2024-04-24T23:29:54.270Z,82.84
2024-04-24T23:32:22.010Z,82.65
2024-04-24T23:34:49.796Z,83.12
2024-04-24T23:37:17.443Z,82.87
2024-04-24T23:39:45.202Z,82.15
2024-04-24T23:42:12.838Z,82.64
2024-04-24T23:44:40.619Z,83.22
2024-04-24T23:47:08.412Z,82.77
2024-04-24T23:49:36.232Z,83.12
2024-04-24T23:52:04.045Z,83.10
2024-04-24T23:54:31.772Z,83.07
2024-04-24T23:56:59.414Z,83.56
2024-04-24T23:59:27.132Z,83.57
